sensor_id;sensor_type;location;lat;lon;timestamp;P1;durP1;ratioP1;P2;durP2;ratioP2
46455;SDS011;64052;47.466;9.094;2022-12-24T00:01:37;0.70;;;0.70;;
46455;SDS011;64052;47.466;9.094;2022-12-24T00:06:39;1.45;;;0.73;;
46455;SDS011;64052;47.466;9.094;2022-12-24T00:11:41;0.70;;;0.70;;
46455;SDS011;64052;47.466;9.094;2022-12-24T00:16:42;1.33;;;0.80;;
46455;SDS011;64052;47.466;9.094;2022-12-24T00:21:44;1.60;;;0.90;;
46455;SDS011;64052;47.466;9.094;2022-12-24T00:26:45;1.35;;;0.70;;
46455;SDS011;64052;47.466;9.094;2022-12-24T00:31:47;0.95;;;0.90;;
46455;SDS011;64052;47.466;9.094;2022-12-24T00:36:49;0.73;;;0.70;;
46455;SDS011;64052;47.466;9.094;2022-12-24T00:41:50;1.02;;;1.00;;
46455;SDS011;64052;47.466;9.094;2022-12-24T00:46:52;0.75;;;0.70;;
46455;SDS011;64052;47.466;9.094;2022-12-24T00:51:53;0.70;;;0.70;;
46455;SDS011;64052;47.466;9.094;2022-12-24T00:56:55;0.70;;;0.50;;
46455;SDS011;64052;47.466;9.094;2022-12-24T01:01:57;0.65;;;0.60;;
46455;SDS011;64052;47.466;9.094;2022-12-24T01:06:58;0.77;;;0.60;;
46455;SDS011;64052;47.466;9.094;2022-12-24T01:12:00;0.82;;;0.65;;
46455;SDS011;64052;47.466;9.094;2022-12-24T01:17:02;0.70;;;0.68;;
46455;SDS011;64052;47.466;9.094;2022-12-24T01:22:04;0.90;;;0.70;;
46455;SDS011;64052;47.466;9.094;2022-12-24T01:27:05;2.20;;;0.70;;
46455;SDS011;64052;47.466;9.094;2022-12-24T01:32:10;0.70;;;0.70;;
46455;SDS011;64052;47.466;9.094;2022-12-24T01:37:11;3.17;;;0.65;;
46455;SDS011;64052;47.466;9.094;2022-12-24T01:42:21;1.05;;;0.70;;
46455;SDS011;64052;47.466;9.094;2022-12-24T01:47:24;0.70;;;0.70;;
46455;SDS011;64052;47.466;9.094;2022-12-24T01:52:30;0.90;;;0.77;;
46455;SDS011;64052;47.466;9.094;2022-12-24T01:57:40;0.60;;;0.60;;
46455;SDS011;64052;47.466;9.094;2022-12-24T02:03:00;0.80;;;0.70;;
46455;SDS011;64052;47.466;9.094;2022-12-24T02:08:03;3.40;;;0.85;;
46455;SDS011;64052;47.466;9.094;2022-12-24T02:13:06;2.30;;;0.70;;
46455;SDS011;64052;47.466;9.094;2022-12-24T02:18:09;1.58;;;0.80;;
46455;SDS011;64052;47.466;9.094;2022-12-24T02:23:48;1.25;;;0.90;;
46455;SDS011;64052;47.466;9.094;2022-12-24T02:39:38;0.83;;;0.83;;
46455;SDS011;64052;47.466;9.094;2022-12-24T02:44:44;1.75;;;0.93;;
46455;SDS011;64052;47.466;9.094;2022-12-24T02:49:50;1.10;;;0.73;;
46455;SDS011;64052;47.466;9.094;2022-12-24T02:54:52;0.85;;;0.70;;
46455;SDS011;64052;47.466;9.094;2022-12-24T03:05:14;1.15;;;0.80;;
46455;SDS011;64052;47.466;9.094;2022-12-24T03:10:51;1.45;;;0.73;;
46455;SDS011;64052;47.466;9.094;2022-12-24T03:16:12;1.45;;;0.60;;
46455;SDS011;64052;47.466;9.094;2022-12-24T03:26:25;1.95;;;0.82;;
46455;SDS011;64052;47.466;9.094;2022-12-24T03:31:41;2.22;;;1.15;;
46455;SDS011;64052;47.466;9.094;2022-12-24T03:36:48;0.60;;;0.60;;
46455;SDS011;64052;47.466;9.094;2022-12-24T03:41:50;0.85;;;0.70;;
46455;SDS011;64052;47.466;9.094;2022-12-24T03:46:52;1.15;;;0.70;;
46455;SDS011;64052;47.466;9.094;2022-12-24T03:51:56;1.40;;;0.68;;
46455;SDS011;64052;47.466;9.094;2022-12-24T03:56:58;1.25;;;0.60;;
46455;SDS011;64052;47.466;9.094;2022-12-24T04:02:00;0.93;;;0.82;;
46455;SDS011;64052;47.466;9.094;2022-12-24T04:07:03;0.60;;;0.60;;
46455;SDS011;64052;47.466;9.094;2022-12-24T04:12:05;0.63;;;0.60;;
46455;SDS011;64052;47.466;9.094;2022-12-24T04:17:07;0.65;;;0.60;;
46455;SDS011;64052;47.466;9.094;2022-12-24T04:22:09;1.30;;;0.70;;
46455;SDS011;64052;47.466;9.094;2022-12-24T04:27:12;0.60;;;0.60;;
46455;SDS011;64052;47.466;9.094;2022-12-24T04:32:14;1.10;;;0.75;;
46455;SDS011;64052;47.466;9.094;2022-12-24T04:37:15;0.80;;;0.60;;
46455;SDS011;64052;47.466;9.094;2022-12-24T04:42:17;2.00;;;1.17;;
46455;SDS011;64052;47.466;9.094;2022-12-24T04:47:18;1.75;;;1.20;;
46455;SDS011;64052;47.466;9.094;2022-12-24T04:52:20;0.70;;;0.63;;
46455;SDS011;64052;47.466;9.094;2022-12-24T04:57:21;1.00;;;1.00;;
46455;SDS011;64052;47.466;9.094;2022-12-24T05:02:23;0.98;;;0.88;;
46455;SDS011;64052;47.466;9.094;2022-12-24T05:07:25;0.82;;;0.82;;
46455;SDS011;64052;47.466;9.094;2022-12-24T05:12:27;0.70;;;0.70;;
46455;SDS011;64052;47.466;9.094;2022-12-24T05:17:28;1.55;;;1.10;;
46455;SDS011;64052;47.466;9.094;2022-12-24T05:22:30;0.90;;;0.90;;
46455;SDS011;64052;47.466;9.094;2022-12-24T05:27:31;1.00;;;0.90;;
46455;SDS011;64052;47.466;9.094;2022-12-24T05:32:33;1.33;;;0.90;;
46455;SDS011;64052;47.466;9.094;2022-12-24T05:37:34;0.98;;;0.90;;
46455;SDS011;64052;47.466;9.094;2022-12-24T05:42:36;1.90;;;1.00;;
46455;SDS011;64052;47.466;9.094;2022-12-24T05:47:38;0.90;;;0.90;;
46455;SDS011;64052;47.466;9.094;2022-12-24T05:52:44;1.35;;;0.95;;
46455;SDS011;64052;47.466;9.094;2022-12-24T05:57:45;2.70;;;0.95;;
46455;SDS011;64052;47.466;9.094;2022-12-24T06:07:49;1.65;;;1.00;;
46455;SDS011;64052;47.466;9.094;2022-12-24T06:12:51;0.82;;;0.82;;
46455;SDS011;64052;47.466;9.094;2022-12-24T06:17:53;1.63;;;0.90;;
46455;SDS011;64052;47.466;9.094;2022-12-24T06:22:55;3.88;;;1.65;;
46455;SDS011;64052;47.466;9.094;2022-12-24T06:27:56;1.17;;;1.08;;
46455;SDS011;64052;47.466;9.094;2022-12-24T06:32:58;1.75;;;0.98;;
46455;SDS011;64052;47.466;9.094;2022-12-24T06:37:59;0.90;;;0.85;;
46455;SDS011;64052;47.466;9.094;2022-12-24T06:43:01;0.90;;;0.90;;
46455;SDS011;64052;47.466;9.094;2022-12-24T06:48:02;1.58;;;0.90;;
46455;SDS011;64052;47.466;9.094;2022-12-24T06:53:04;1.05;;;0.95;;
46455;SDS011;64052;47.466;9.094;2022-12-24T06:58:05;1.60;;;1.20;;
46455;SDS011;64052;47.466;9.094;2022-12-24T07:03:07;1.45;;;1.10;;
46455;SDS011;64052;47.466;9.094;2022-12-24T07:08:08;1.13;;;1.02;;
46455;SDS011;64052;47.466;9.094;2022-12-24T07:13:10;1.05;;;1.00;;
46455;SDS011;64052;47.466;9.094;2022-12-24T07:18:11;1.77;;;1.00;;
46455;SDS011;64052;47.466;9.094;2022-12-24T07:23:13;1.50;;;1.08;;
46455;SDS011;64052;47.466;9.094;2022-12-24T07:28:14;2.10;;;1.20;;
46455;SDS011;64052;47.466;9.094;2022-12-24T07:33:16;1.05;;;0.90;;
46455;SDS011;64052;47.466;9.094;2022-12-24T07:38:17;0.90;;;0.90;;
46455;SDS011;64052;47.466;9.094;2022-12-24T07:43:19;2.92;;;1.80;;
46455;SDS011;64052;47.466;9.094;2022-12-24T07:48:20;2.10;;;1.30;;
46455;SDS011;64052;47.466;9.094;2022-12-24T07:53:22;1.15;;;1.05;;
46455;SDS011;64052;47.466;9.094;2022-12-24T07:58:24;2.15;;;1.20;;
46455;SDS011;64052;47.466;9.094;2022-12-24T08:03:26;1.17;;;1.00;;
46455;SDS011;64052;47.466;9.094;2022-12-24T08:08:28;1.45;;;1.35;;
46455;SDS011;64052;47.466;9.094;2022-12-24T08:13:30;0.90;;;0.90;;
46455;SDS011;64052;47.466;9.094;2022-12-24T08:18:32;1.17;;;1.10;;
46455;SDS011;64052;47.466;9.094;2022-12-24T08:23:34;1.77;;;0.95;;
46455;SDS011;64052;47.466;9.094;2022-12-24T08:28:36;2.92;;;0.95;;
46455;SDS011;64052;47.466;9.094;2022-12-24T08:33:38;2.50;;;1.00;;
46455;SDS011;64052;47.466;9.094;2022-12-24T08:38:39;1.10;;;1.00;;
46455;SDS011;64052;47.466;9.094;2022-12-24T08:43:41;1.00;;;0.90;;
46455;SDS011;64052;47.466;9.094;2022-12-24T08:48:42;1.73;;;0.95;;
46455;SDS011;64052;47.466;9.094;2022-12-24T08:53:44;0.80;;;0.80;;
46455;SDS011;64052;47.466;9.094;2022-12-24T08:58:46;1.25;;;1.15;;
46455;SDS011;64052;47.466;9.094;2022-12-24T09:03:47;1.20;;;1.10;;
46455;SDS011;64052;47.466;9.094;2022-12-24T09:08:49;3.45;;;1.67;;
46455;SDS011;64052;47.466;9.094;2022-12-24T09:13:51;1.00;;;0.90;;
46455;SDS011;64052;47.466;9.094;2022-12-24T09:18:52;1.67;;;0.80;;
46455;SDS011;64052;47.466;9.094;2022-12-24T09:23:54;0.80;;;0.80;;
46455;SDS011;64052;47.466;9.094;2022-12-24T09:28:56;1.08;;;0.90;;
46455;SDS011;64052;47.466;9.094;2022-12-24T09:33:58;0.90;;;0.90;;
46455;SDS011;64052;47.466;9.094;2022-12-24T09:39:00;0.98;;;0.90;;
46455;SDS011;64052;47.466;9.094;2022-12-24T09:44:04;1.35;;;1.00;;
46455;SDS011;64052;47.466;9.094;2022-12-24T09:54:28;1.00;;;0.90;;
46455;SDS011;64052;47.466;9.094;2022-12-24T09:59:42;1.35;;;1.25;;
46455;SDS011;64052;47.466;9.094;2022-12-24T10:04:46;0.90;;;0.90;;
46455;SDS011;64052;47.466;9.094;2022-12-24T10:25:52;1.00;;;0.90;;
46455;SDS011;64052;47.466;9.094;2022-12-24T10:31:05;1.33;;;1.23;;
46455;SDS011;64052;47.466;9.094;2022-12-24T10:36:19;0.98;;;0.90;;
46455;SDS011;64052;47.466;9.094;2022-12-24T10:41:25;0.80;;;0.80;;
46455;SDS011;64052;47.466;9.094;2022-12-24T10:46:35;0.82;;;0.82;;
46455;SDS011;64052;47.466;9.094;2022-12-24T10:51:40;1.30;;;0.80;;
46455;SDS011;64052;47.466;9.094;2022-12-24T10:56:49;0.75;;;0.75;;
46455;SDS011;64052;47.466;9.094;2022-12-24T11:01:56;0.80;;;0.80;;
46455;SDS011;64052;47.466;9.094;2022-12-24T11:07:00;1.10;;;0.75;;
46455;SDS011;64052;47.466;9.094;2022-12-24T11:12:03;0.88;;;0.88;;
46455;SDS011;64052;47.466;9.094;2022-12-24T11:17:17;1.10;;;0.90;;
46455;SDS011;64052;47.466;9.094;2022-12-24T11:22:22;0.80;;;0.80;;
46455;SDS011;64052;47.466;9.094;2022-12-24T11:27:44;1.60;;;1.00;;
46455;SDS011;64052;47.466;9.094;2022-12-24T11:32:47;0.90;;;0.90;;
46455;SDS011;64052;47.466;9.094;2022-12-24T11:43:01;1.15;;;1.08;;
46455;SDS011;64052;47.466;9.094;2022-12-24T11:48:30;1.10;;;1.02;;
46455;SDS011;64052;47.466;9.094;2022-12-24T11:53:40;0.80;;;0.80;;
46455;SDS011;64052;47.466;9.094;2022-12-24T11:58:51;1.48;;;0.88;;
46455;SDS011;64052;47.466;9.094;2022-12-24T12:03:57;2.08;;;1.02;;
46455;SDS011;64052;47.466;9.094;2022-12-24T12:09:14;1.70;;;1.20;;
46455;SDS011;64052;47.466;9.094;2022-12-24T12:14:19;1.98;;;0.95;;
46455;SDS011;64052;47.466;9.094;2022-12-24T12:19:30;1.60;;;0.90;;
46455;SDS011;64052;47.466;9.094;2022-12-24T12:24:38;1.75;;;1.35;;
46455;SDS011;64052;47.466;9.094;2022-12-24T12:29:49;2.03;;;1.90;;
46455;SDS011;64052;47.466;9.094;2022-12-24T12:40:31;2.90;;;1.02;;
46455;SDS011;64052;47.466;9.094;2022-12-24T12:57:07;1.00;;;0.82;;
46455;SDS011;64052;47.466;9.094;2022-12-24T13:13:01;1.30;;;0.90;;
46455;SDS011;64052;47.466;9.094;2022-12-24T13:23:49;1.00;;;0.90;;
46455;SDS011;64052;47.466;9.094;2022-12-24T13:34:45;2.70;;;1.10;;
46455;SDS011;64052;47.466;9.094;2022-12-24T13:45:51;0.80;;;0.80;;
46455;SDS011;64052;47.466;9.094;2022-12-24T13:55:36;1.25;;;1.10;;
46455;SDS011;64052;47.466;9.094;2022-12-24T14:00:39;3.00;;;1.20;;
46455;SDS011;64052;47.466;9.094;2022-12-24T14:05:45;2.03;;;1.30;;
46455;SDS011;64052;47.466;9.094;2022-12-24T14:21:26;1.85;;;1.75;;
46455;SDS011;64052;47.466;9.094;2022-12-24T14:26:32;1.02;;;0.90;;
46455;SDS011;64052;47.466;9.094;2022-12-24T14:31:36;1.27;;;1.17;;
46455;SDS011;64052;47.466;9.094;2022-12-24T14:36:39;1.58;;;1.13;;
46455;SDS011;64052;47.466;9.094;2022-12-24T14:42:33;1.40;;;1.30;;
46455;SDS011;64052;47.466;9.094;2022-12-24T14:52:42;2.47;;;1.38;;
46455;SDS011;64052;47.466;9.094;2022-12-24T14:58:18;1.35;;;1.25;;
46455;SDS011;64052;47.466;9.094;2022-12-24T15:03:21;2.45;;;1.70;;
46455;SDS011;64052;47.466;9.094;2022-12-24T15:08:28;2.10;;;1.60;;
46455;SDS011;64052;47.466;9.094;2022-12-24T15:13:33;2.10;;;1.80;;
46455;SDS011;64052;47.466;9.094;2022-12-24T15:18:52;3.88;;;1.90;;
46455;SDS011;64052;47.466;9.094;2022-12-24T15:23:57;2.97;;;1.73;;
46455;SDS011;64052;47.466;9.094;2022-12-24T15:28:59;1.88;;;1.77;;
46455;SDS011;64052;47.466;9.094;2022-12-24T15:34:04;3.33;;;2.17;;
46455;SDS011;64052;47.466;9.094;2022-12-24T15:39:06;5.90;;;3.20;;
46455;SDS011;64052;47.466;9.094;2022-12-24T15:44:14;3.92;;;2.13;;
46455;SDS011;64052;47.466;9.094;2022-12-24T15:49:16;2.13;;;1.60;;
46455;SDS011;64052;47.466;9.094;2022-12-24T15:54:19;1.80;;;1.65;;
46455;SDS011;64052;47.466;9.094;2022-12-24T15:59:29;1.85;;;1.20;;
46455;SDS011;64052;47.466;9.094;2022-12-24T16:04:34;2.30;;;1.65;;
46455;SDS011;64052;47.466;9.094;2022-12-24T16:09:39;1.58;;;1.42;;
46455;SDS011;64052;47.466;9.094;2022-12-24T16:14:52;2.55;;;2.35;;
46455;SDS011;64052;47.466;9.094;2022-12-24T16:19:59;1.85;;;1.60;;
46455;SDS011;64052;47.466;9.094;2022-12-24T16:30:27;2.58;;;2.38;;
46455;SDS011;64052;47.466;9.094;2022-12-24T16:35:29;3.80;;;3.50;;
46455;SDS011;64052;47.466;9.094;2022-12-24T16:40:31;3.40;;;3.10;;
46455;SDS011;64052;47.466;9.094;2022-12-24T16:45:34;4.72;;;3.47;;
46455;SDS011;64052;47.466;9.094;2022-12-24T16:50:36;3.08;;;2.78;;
46455;SDS011;64052;47.466;9.094;2022-12-24T16:55:38;7.93;;;7.13;;
46455;SDS011;64052;47.466;9.094;2022-12-24T17:00:39;11.20;;;9.80;;
46455;SDS011;64052;47.466;9.094;2022-12-24T17:05:42;6.45;;;5.60;;
46455;SDS011;64052;47.466;9.094;2022-12-24T17:10:50;5.38;;;4.38;;
46455;SDS011;64052;47.466;9.094;2022-12-24T17:15:52;4.97;;;4.45;;
46455;SDS011;64052;47.466;9.094;2022-12-24T17:21:00;4.03;;;3.13;;
46455;SDS011;64052;47.466;9.094;2022-12-24T17:26:03;4.30;;;3.90;;
46455;SDS011;64052;47.466;9.094;2022-12-24T17:31:15;25.40;;;14.98;;
46455;SDS011;64052;47.466;9.094;2022-12-24T17:36:17;18.75;;;11.00;;
46455;SDS011;64052;47.466;9.094;2022-12-24T17:41:19;16.35;;;9.50;;
46455;SDS011;64052;47.466;9.094;2022-12-24T17:46:21;9.95;;;6.85;;
46455;SDS011;64052;47.466;9.094;2022-12-24T17:51:24;3.97;;;2.80;;
46455;SDS011;64052;47.466;9.094;2022-12-24T17:56:26;3.45;;;2.70;;
46455;SDS011;64052;47.466;9.094;2022-12-24T18:01:28;6.55;;;5.38;;
46455;SDS011;64052;47.466;9.094;2022-12-24T18:06:29;6.10;;;5.20;;
46455;SDS011;64052;47.466;9.094;2022-12-24T18:11:32;4.80;;;3.63;;
46455;SDS011;64052;47.466;9.094;2022-12-24T18:16:36;2.88;;;2.63;;
46455;SDS011;64052;47.466;9.094;2022-12-24T18:21:39;4.45;;;3.05;;
46455;SDS011;64052;47.466;9.094;2022-12-24T18:26:41;5.45;;;4.50;;
46455;SDS011;64052;47.466;9.094;2022-12-24T18:31:43;4.03;;;3.30;;
46455;SDS011;64052;47.466;9.094;2022-12-24T18:36:45;4.20;;;2.72;;
46455;SDS011;64052;47.466;9.094;2022-12-24T18:46:56;14.05;;;8.93;;
46455;SDS011;64052;47.466;9.094;2022-12-24T18:51:58;16.80;;;11.73;;
46455;SDS011;64052;47.466;9.094;2022-12-24T18:56:59;7.00;;;6.35;;
46455;SDS011;64052;47.466;9.094;2022-12-24T19:02:01;8.95;;;5.97;;
46455;SDS011;64052;47.466;9.094;2022-12-24T19:07:03;8.93;;;7.03;;
46455;SDS011;64052;47.466;9.094;2022-12-24T19:12:05;11.27;;;7.72;;
46455;SDS011;64052;47.466;9.094;2022-12-24T19:17:06;10.88;;;8.32;;
46455;SDS011;64052;47.466;9.094;2022-12-24T19:22:08;7.32;;;6.00;;
46455;SDS011;64052;47.466;9.094;2022-12-24T19:27:09;9.35;;;7.90;;
46455;SDS011;64052;47.466;9.094;2022-12-24T19:32:11;9.20;;;6.80;;
46455;SDS011;64052;47.466;9.094;2022-12-24T19:37:12;6.47;;;5.88;;
46455;SDS011;64052;47.466;9.094;2022-12-24T19:42:14;6.78;;;6.18;;
46455;SDS011;64052;47.466;9.094;2022-12-24T19:47:15;5.32;;;4.57;;
46455;SDS011;64052;47.466;9.094;2022-12-24T19:52:17;5.22;;;3.85;;
46455;SDS011;64052;47.466;9.094;2022-12-24T19:57:18;4.72;;;3.60;;
46455;SDS011;64052;47.466;9.094;2022-12-24T20:02:20;4.25;;;3.67;;
46455;SDS011;64052;47.466;9.094;2022-12-24T20:07:21;4.85;;;3.50;;
46455;SDS011;64052;47.466;9.094;2022-12-24T20:12:23;3.50;;;3.05;;
46455;SDS011;64052;47.466;9.094;2022-12-24T20:17:24;4.35;;;3.50;;
46455;SDS011;64052;47.466;9.094;2022-12-24T20:22:26;5.55;;;4.80;;
46455;SDS011;64052;47.466;9.094;2022-12-24T20:27:27;4.75;;;3.55;;
46455;SDS011;64052;47.466;9.094;2022-12-24T20:32:29;4.25;;;3.55;;
46455;SDS011;64052;47.466;9.094;2022-12-24T20:37:30;12.90;;;9.93;;
46455;SDS011;64052;47.466;9.094;2022-12-24T20:42:32;11.43;;;8.27;;
46455;SDS011;64052;47.466;9.094;2022-12-24T20:47:33;9.23;;;7.93;;
46455;SDS011;64052;47.466;9.094;2022-12-24T20:52:35;8.38;;;6.55;;
46455;SDS011;64052;47.466;9.094;2022-12-24T20:57:37;11.73;;;8.65;;
46455;SDS011;64052;47.466;9.094;2022-12-24T21:02:38;12.55;;;10.43;;
46455;SDS011;64052;47.466;9.094;2022-12-24T21:07:40;10.95;;;8.80;;
46455;SDS011;64052;47.466;9.094;2022-12-24T21:12:42;10.82;;;7.93;;
46455;SDS011;64052;47.466;9.094;2022-12-24T21:17:44;9.80;;;5.80;;
46455;SDS011;64052;47.466;9.094;2022-12-24T21:22:46;11.05;;;8.20;;
46455;SDS011;64052;47.466;9.094;2022-12-24T21:27:48;14.30;;;10.43;;
46455;SDS011;64052;47.466;9.094;2022-12-24T21:32:50;10.38;;;8.25;;
46455;SDS011;64052;47.466;9.094;2022-12-24T21:37:52;9.13;;;8.15;;
46455;SDS011;64052;47.466;9.094;2022-12-24T21:42:53;9.00;;;8.02;;
46455;SDS011;64052;47.466;9.094;2022-12-24T21:47:55;8.77;;;7.75;;
46455;SDS011;64052;47.466;9.094;2022-12-24T21:52:57;8.52;;;7.60;;
46455;SDS011;64052;47.466;9.094;2022-12-24T21:57:58;10.65;;;8.77;;
46455;SDS011;64052;47.466;9.094;2022-12-24T22:03:01;9.70;;;8.02;;
46455;SDS011;64052;47.466;9.094;2022-12-24T22:08:03;9.18;;;7.30;;
46455;SDS011;64052;47.466;9.094;2022-12-24T22:13:04;9.82;;;8.48;;
46455;SDS011;64052;47.466;9.094;2022-12-24T22:18:06;9.43;;;7.93;;
46455;SDS011;64052;47.466;9.094;2022-12-24T22:23:08;8.18;;;7.32;;
46455;SDS011;64052;47.466;9.094;2022-12-24T22:28:09;7.28;;;6.47;;
46455;SDS011;64052;47.466;9.094;2022-12-24T22:33:11;9.85;;;7.65;;
46455;SDS011;64052;47.466;9.094;2022-12-24T22:38:13;8.07;;;7.18;;
46455;SDS011;64052;47.466;9.094;2022-12-24T22:43:14;7.70;;;6.90;;
46455;SDS011;64052;47.466;9.094;2022-12-24T22:48:16;8.25;;;6.72;;
46455;SDS011;64052;47.466;9.094;2022-12-24T22:53:18;10.20;;;7.38;;
46455;SDS011;64052;47.466;9.094;2022-12-24T22:58:19;8.18;;;7.18;;
46455;SDS011;64052;47.466;9.094;2022-12-24T23:03:21;9.48;;;7.40;;
46455;SDS011;64052;47.466;9.094;2022-12-24T23:08:22;9.20;;;7.40;;
46455;SDS011;64052;47.466;9.094;2022-12-24T23:13:24;8.85;;;6.93;;
46455;SDS011;64052;47.466;9.094;2022-12-24T23:18:26;8.05;;;7.15;;
46455;SDS011;64052;47.466;9.094;2022-12-24T23:23:27;8.48;;;7.60;;
46455;SDS011;64052;47.466;9.094;2022-12-24T23:28:37;8.13;;;7.35;;
46455;SDS011;64052;47.466;9.094;2022-12-24T23:33:39;8.95;;;7.68;;
46455;SDS011;64052;47.466;9.094;2022-12-24T23:38:41;8.70;;;7.68;;
46455;SDS011;64052;47.466;9.094;2022-12-24T23:43:43;8.32;;;7.13;;
46455;SDS011;64052;47.466;9.094;2022-12-24T23:48:45;8.48;;;7.63;;
46455;SDS011;64052;47.466;9.094;2022-12-24T23:53:46;8.70;;;7.80;;
46455;SDS011;64052;47.466;9.094;2022-12-24T23:58:48;9.38;;;8.40;;
